createdAt,value
2017-08-19T00:03:19.846Z,89.90
2017-08-19T00:08:23.030Z,89.70
2017-08-19T00:13:26.209Z,89.50
2017-08-19T00:18:29.515Z,90.20
2017-08-19T00:23:32.678Z,90.60
2017-08-19T00:28:36.697Z,91.70
2017-08-19T00:33:39.873Z,92.70
2017-08-19T00:38:43.084Z,93.10
2017-08-19T00:43:46.267Z,93.50
2017-08-19T00:48:49.446Z,93.80
2017-08-19T00:53:52.609Z,94.90
2017-08-19T00:58:55.802Z,95.80
2017-08-19T01:03:58.995Z,95.90
2017-08-19T01:09:02.184Z,96.10
2017-08-19T01:14:05.368Z,94.70
2017-08-19T01:19:08.645Z,93.80
2017-08-19T01:24:11.825Z,93.00
2017-08-19T01:29:15.053Z,92.80
2017-08-19T01:34:18.249Z,91.90
2017-08-19T01:39:21.420Z,93.90
2017-08-19T01:44:24.637Z,94.60
2017-08-19T01:49:27.801Z,94.40
2017-08-19T01:54:30.985Z,93.90
2017-08-19T01:59:34.181Z,95.00
2017-08-19T02:04:37.525Z,95.30
2017-08-19T02:09:40.724Z,95.60
2017-08-19T02:14:44.162Z,95.40
2017-08-19T02:19:47.461Z,94.60
2017-08-19T02:24:50.965Z,94.60
2017-08-19T02:29:54.153Z,93.70
2017-08-19T02:34:57.366Z,93.60
2017-08-19T02:40:00.638Z,95.40
2017-08-19T02:45:03.835Z,94.20
2017-08-19T02:50:07.011Z,94.40
2017-08-19T02:55:10.206Z,93.80
2017-08-19T03:00:13.380Z,94.40
2017-08-19T03:05:16.597Z,94.80
2017-08-19T03:10:19.807Z,93.50
2017-08-19T03:15:23.366Z,94.70
2017-08-19T03:20:26.573Z,95.40
2017-08-19T03:25:29.781Z,95.50
2017-08-19T03:30:32.955Z,95.30
2017-08-19T03:35:36.278Z,95.80
2017-08-19T03:40:39.436Z,94.70
2017-08-19T03:45:42.728Z,94.90
2017-08-19T03:50:45.904Z,94.50
2017-08-19T03:55:49.083Z,93.90
2017-08-19T04:00:52.512Z,94.00
2017-08-19T04:05:55.709Z,92.30
2017-08-19T04:10:58.905Z,91.00
2017-08-19T04:16:02.112Z,92.00
2017-08-19T04:21:05.258Z,92.30
2017-08-19T04:26:08.476Z,92.40
2017-08-19T04:31:11.677Z,92.60
2017-08-19T04:36:14.862Z,92.20
2017-08-19T04:41:18.029Z,93.10
2017-08-19T04:46:21.337Z,92.80
2017-08-19T04:51:24.534Z,93.30
2017-08-19T04:56:27.743Z,94.00
2017-08-19T05:01:30.949Z,93.80
2017-08-19T05:06:34.124Z,94.40
2017-08-19T05:11:37.319Z,94.20
2017-08-19T05:16:40.549Z,93.30
2017-08-19T05:21:43.732Z,89.60
2017-08-19T05:26:46.925Z,88.40
2017-08-19T05:31:50.145Z,86.70
2017-08-19T05:36:53.368Z,84.00
2017-08-19T05:41:56.583Z,81.60
2017-08-19T05:46:59.779Z,77.80
2017-08-19T05:52:02.962Z,74.80
2017-08-19T05:57:06.213Z,72.80
2017-08-19T06:02:09.406Z,71.20
2017-08-19T06:07:12.613Z,70.10
2017-08-19T06:12:15.804Z,70.00
2017-08-19T06:17:19.017Z,66.90
2017-08-19T06:22:22.238Z,66.10
2017-08-19T06:27:25.450Z,65.40
2017-08-19T06:32:28.643Z,63.00
2017-08-19T06:37:31.826Z,63.00
2017-08-19T06:42:35.034Z,61.30
2017-08-19T06:47:38.253Z,61.50
2017-08-19T06:52:41.450Z,61.90
2017-08-19T06:57:44.652Z,62.10
2017-08-19T07:02:47.851Z,61.40
2017-08-19T07:07:51.093Z,60.40
2017-08-19T07:12:54.313Z,60.20
2017-08-19T07:17:57.507Z,60.10
2017-08-19T07:23:00.706Z,60.00
2017-08-19T07:28:04.022Z,60.80
2017-08-19T07:33:07.193Z,60.00
2017-08-19T07:38:10.409Z,64.00
2017-08-19T07:43:13.618Z,57.70
2017-08-19T07:48:16.828Z,57.00
2017-08-19T07:53:19.985Z,55.50
2017-08-19T07:58:23.209Z,57.00
2017-08-19T08:03:27.582Z,55.90
2017-08-19T08:08:30.758Z,55.70
2017-08-19T08:13:33.948Z,54.40
2017-08-19T08:18:37.127Z,55.10
2017-08-19T08:23:40.342Z,55.70
2017-08-19T08:28:43.532Z,53.90
2017-08-19T08:33:46.784Z,51.80
2017-08-19T08:38:50.217Z,50.70
2017-08-19T08:43:53.433Z,52.70
2017-08-19T08:48:56.626Z,53.00
2017-08-19T08:53:59.894Z,54.90
2017-08-19T08:59:03.073Z,54.30
2017-08-19T09:04:06.265Z,53.30
2017-08-19T09:09:09.508Z,49.30
2017-08-19T09:14:12.670Z,49.80
2017-08-19T09:19:15.863Z,52.60
2017-08-19T09:24:19.077Z,52.80
2017-08-19T09:29:22.270Z,52.20
2017-08-19T09:34:25.512Z,52.60
2017-08-19T09:39:28.686Z,52.30
2017-08-19T09:44:31.882Z,52.90
2017-08-19T09:49:35.064Z,52.90
2017-08-19T09:54:38.270Z,50.90
2017-08-19T09:59:41.493Z,49.40
2017-08-19T10:04:44.724Z,50.70
2017-08-19T10:09:48.618Z,48.70
2017-08-19T10:14:51.922Z,47.00
2017-08-19T10:19:55.123Z,48.80
2017-08-19T10:24:58.316Z,47.40
2017-08-19T10:30:01.547Z,46.60
2017-08-19T10:35:04.732Z,46.90
2017-08-19T10:40:08.113Z,44.70
2017-08-19T10:45:11.359Z,44.30
2017-08-19T10:50:14.722Z,45.30
2017-08-19T10:55:18.051Z,43.60
2017-08-19T11:00:21.237Z,43.90
2017-08-19T11:05:24.430Z,44.10
2017-08-19T11:10:27.628Z,43.30
2017-08-19T11:15:30.830Z,42.40
2017-08-19T11:20:34.025Z,44.50
2017-08-19T11:25:37.226Z,44.70
2017-08-19T11:30:40.395Z,43.90
2017-08-19T11:35:43.587Z,43.40
2017-08-19T11:40:46.898Z,44.40
2017-08-19T11:45:50.118Z,44.70
2017-08-19T11:50:53.338Z,43.40
2017-08-19T11:55:56.557Z,44.70
2017-08-19T12:00:59.773Z,47.20
2017-08-19T12:06:03.005Z,47.20
2017-08-19T12:11:06.199Z,44.40
2017-08-19T12:16:09.390Z,47.40
2017-08-19T12:21:12.565Z,45.70
2017-08-19T12:26:15.751Z,45.70
2017-08-19T12:31:18.946Z,44.90
2017-08-19T12:36:22.145Z,45.20
2017-08-19T12:41:25.348Z,46.00
2017-08-19T12:46:28.546Z,44.30
2017-08-19T12:51:31.738Z,42.80
2017-08-19T12:56:34.942Z,42.00
2017-08-19T13:01:39.246Z,43.30
2017-08-19T13:06:42.452Z,42.50
2017-08-19T13:11:45.626Z,42.80
2017-08-19T13:16:48.954Z,44.20
2017-08-19T13:21:52.278Z,45.60
2017-08-19T13:26:55.459Z,46.40
2017-08-19T13:31:58.651Z,45.20
2017-08-19T13:37:01.877Z,43.30
2017-08-19T13:42:05.094Z,44.40
2017-08-19T13:47:08.277Z,45.30
2017-08-19T13:52:11.493Z,45.50
2017-08-19T13:57:14.706Z,45.80
2017-08-19T14:02:17.911Z,44.00
2017-08-19T14:07:21.086Z,44.50
2017-08-19T14:12:24.323Z,46.00
2017-08-19T14:17:27.533Z,45.70
2017-08-19T14:22:30.761Z,43.60
2017-08-19T14:27:33.985Z,44.50
2017-08-19T14:32:37.238Z,44.60
2017-08-19T14:37:40.474Z,44.00
2017-08-19T14:42:43.719Z,44.00
2017-08-19T14:47:46.941Z,44.30
2017-08-19T14:52:50.137Z,45.00
2017-08-19T14:57:53.339Z,45.30
2017-08-19T15:02:56.727Z,45.50
2017-08-19T15:07:59.919Z,45.70
2017-08-19T15:13:03.112Z,44.70
2017-08-19T15:18:06.353Z,44.40
2017-08-19T15:23:09.568Z,43.60
2017-08-19T15:28:12.745Z,45.90
2017-08-19T15:33:15.963Z,46.60
2017-08-19T15:38:19.173Z,46.00
2017-08-19T15:43:22.380Z,46.20
2017-08-19T15:48:25.585Z,44.60
2017-08-19T15:53:28.898Z,46.30
2017-08-19T15:58:32.335Z,46.40
2017-08-19T16:03:35.509Z,46.30
2017-08-19T16:08:38.897Z,45.80
2017-08-19T16:13:42.125Z,46.40
2017-08-19T16:18:45.384Z,45.70
2017-08-19T16:23:48.594Z,47.10
2017-08-19T16:28:51.797Z,47.70
2017-08-19T16:33:54.995Z,48.30
2017-08-19T16:38:58.172Z,48.60
2017-08-19T16:44:01.374Z,47.20
2017-08-19T16:49:04.582Z,47.00
2017-08-19T16:54:07.802Z,46.80
2017-08-19T16:59:11.012Z,47.90
2017-08-19T17:04:14.206Z,49.80
2017-08-19T17:09:17.427Z,50.80
2017-08-19T17:14:20.633Z,52.20
2017-08-19T17:19:23.838Z,52.50
2017-08-19T17:24:27.097Z,52.10
2017-08-19T17:29:30.285Z,52.70
2017-08-19T17:34:33.666Z,52.40
2017-08-19T17:39:36.895Z,52.00
2017-08-19T17:44:40.061Z,51.20
2017-08-19T17:49:44.233Z,50.80
2017-08-19T17:54:47.411Z,51.10
2017-08-19T17:59:50.597Z,51.30
2017-08-19T18:10:03.365Z,52.60
2017-08-19T18:15:06.690Z,53.30
2017-08-19T18:20:09.907Z,53.50
2017-08-19T18:25:13.126Z,54.00
2017-08-19T18:30:16.350Z,55.80
2017-08-19T18:35:19.654Z,55.70
2017-08-19T18:40:22.854Z,60.70
2017-08-19T18:45:26.059Z,67.30
2017-08-19T18:50:29.277Z,69.90
2017-08-19T18:55:32.491Z,77.40
2017-08-19T19:00:35.677Z,79.70
2017-08-19T19:05:38.911Z,81.40
2017-08-19T19:10:42.133Z,82.70
2017-08-19T19:15:45.364Z,81.10
2017-08-19T19:20:48.592Z,81.80
2017-08-19T19:25:51.804Z,81.90
2017-08-19T19:30:55.000Z,83.40
2017-08-19T19:35:58.241Z,82.30
2017-08-19T19:41:01.428Z,83.70
2017-08-19T19:46:04.633Z,83.50
2017-08-19T19:51:07.837Z,84.40
2017-08-19T19:56:11.055Z,83.40
2017-08-19T20:01:14.239Z,84.00
2017-08-19T20:06:17.467Z,85.90
2017-08-19T20:11:20.687Z,84.10
2017-08-19T20:16:23.886Z,84.20
2017-08-19T20:21:27.086Z,84.20
2017-08-19T20:26:30.265Z,84.30
2017-08-19T20:31:33.460Z,85.80
2017-08-19T20:36:36.835Z,84.70
2017-08-19T20:41:40.138Z,84.60
2017-08-19T20:46:43.357Z,84.10
2017-08-19T20:51:46.545Z,85.90
2017-08-19T20:56:49.859Z,84.30
2017-08-19T21:01:53.054Z,83.90
2017-08-19T21:06:56.240Z,84.50
2017-08-19T21:11:59.461Z,85.30
2017-08-19T21:17:02.663Z,86.90
2017-08-19T21:22:05.819Z,87.70
2017-08-19T21:27:09.017Z,88.40
2017-08-19T21:32:12.271Z,90.50
2017-08-19T21:37:15.495Z,90.10
2017-08-19T21:42:18.913Z,89.20
2017-08-19T21:47:22.130Z,88.30
2017-08-19T21:52:25.399Z,88.50
2017-08-19T21:57:28.830Z,86.60
2017-08-19T22:02:32.047Z,87.30
2017-08-19T22:07:35.266Z,87.10
2017-08-19T22:12:38.450Z,88.70
2017-08-19T22:17:41.633Z,89.10
2017-08-19T22:22:44.838Z,89.00
2017-08-19T22:27:48.029Z,89.70
2017-08-19T22:32:51.245Z,89.30
2017-08-19T22:37:54.453Z,90.20
2017-08-19T22:42:57.707Z,90.10
2017-08-19T22:48:00.911Z,90.20
2017-08-19T22:53:04.110Z,89.40
2017-08-19T22:58:07.315Z,89.90
2017-08-19T23:03:10.533Z,90.80
2017-08-19T23:08:13.737Z,91.40
2017-08-19T23:13:16.953Z,91.20
2017-08-19T23:18:20.186Z,91.80
2017-08-19T23:23:23.461Z,91.90
2017-08-19T23:28:26.655Z,91.20
2017-08-19T23:33:29.865Z,92.00
2017-08-19T23:38:33.066Z,91.40
2017-08-19T23:43:36.282Z,91.80
2017-08-19T23:48:39.477Z,91.40
2017-08-19T23:53:42.661Z,90.80
2017-08-19T23:58:45.858Z,90.40
